sensor_id;sensor_type;location;lat;lon;timestamp;pressure;altitude;pressure_sealevel;temperature;humidity
62164;BME280;48149;51.132;7.178;2023-04-30T00:00:27;99225.34;;;26.82;32.17
62164;BME280;48149;51.132;7.178;2023-04-30T00:02:52;99215.63;;;26.09;31.77
62164;BME280;48149;51.132;7.178;2023-04-30T00:05:17;99215.31;;;26.11;32.06
62164;BME280;48149;51.132;7.178;2023-04-30T00:07:42;99213.16;;;25.99;32.89
62164;BME280;48149;51.132;7.178;2023-04-30T00:10:08;99213.97;;;26.49;32.67
62164;BME280;48149;51.132;7.178;2023-04-30T00:12:34;99220.97;;;25.55;33.27
62164;BME280;48149;51.132;7.178;2023-04-30T00:14:59;99215.06;;;25.07;34.23
62164;BME280;48149;51.132;7.178;2023-04-30T00:17:25;99223.47;;;25.92;32.91
62164;BME280;48149;51.132;7.178;2023-04-30T00:19:50;99226.00;;;25.10;34.27
62164;BME280;48149;51.132;7.178;2023-04-30T00:22:15;99214.28;;;24.13;35.10
62164;BME280;48149;51.132;7.178;2023-04-30T00:24:41;99220.56;;;24.22;36.00
62164;BME280;48149;51.132;7.178;2023-04-30T00:27:06;99225.72;;;24.74;34.60
62164;BME280;48149;51.132;7.178;2023-04-30T00:29:31;99225.19;;;25.42;34.38
62164;BME280;48149;51.132;7.178;2023-04-30T00:31:56;99233.75;;;23.89;35.73
62164;BME280;48149;51.132;7.178;2023-04-30T00:34:22;99233.69;;;24.23;35.06
62164;BME280;48149;51.132;7.178;2023-04-30T00:36:47;99237.25;;;23.32;36.52
62164;BME280;48149;51.132;7.178;2023-04-30T00:39:12;99240.91;;;23.47;36.63
62164;BME280;48149;51.132;7.178;2023-04-30T00:41:37;99244.34;;;23.18;36.88
62164;BME280;48149;51.132;7.178;2023-04-30T00:44:03;99240.72;;;22.55;38.22
62164;BME280;48149;51.132;7.178;2023-04-30T00:46:29;99250.00;;;23.46;36.25
62164;BME280;48149;51.132;7.178;2023-04-30T00:48:54;99243.06;;;23.45;35.97
62164;BME280;48149;51.132;7.178;2023-04-30T00:51:20;99246.22;;;22.79;37.20
62164;BME280;48149;51.132;7.178;2023-04-30T00:53:45;99245.59;;;22.92;38.52
62164;BME280;48149;51.132;7.178;2023-04-30T00:56:10;99241.84;;;22.93;37.61
62164;BME280;48149;51.132;7.178;2023-04-30T00:58:37;99245.06;;;23.29;36.75
62164;BME280;48149;51.132;7.178;2023-04-30T01:01:02;99245.22;;;23.43;36.73
62164;BME280;48149;51.132;7.178;2023-04-30T01:03:28;99240.25;;;22.92;37.21
62164;BME280;48149;51.132;7.178;2023-04-30T01:05:53;99243.91;;;23.01;37.29
62164;BME280;48149;51.132;7.178;2023-04-30T01:08:18;99244.38;;;23.13;37.24
62164;BME280;48149;51.132;7.178;2023-04-30T01:13:39;99245.38;;;24.04;35.85
62164;BME280;48149;51.132;7.178;2023-04-30T01:18:38;99238.16;;;23.52;36.38
62164;BME280;48149;51.132;7.178;2023-04-30T01:21:05;99240.66;;;23.43;35.97
62164;BME280;48149;51.132;7.178;2023-04-30T01:28:43;99240.00;;;22.94;36.52
62164;BME280;48149;51.132;7.178;2023-04-30T01:31:17;99242.94;;;24.07;34.60
62164;BME280;48149;51.132;7.178;2023-04-30T01:33:42;99240.75;;;23.62;35.62
62164;BME280;48149;51.132;7.178;2023-04-30T01:43:38;99233.78;;;23.66;35.66
62164;BME280;48149;51.132;7.178;2023-04-30T01:51:02;99229.53;;;24.31;34.73
62164;BME280;48149;51.132;7.178;2023-04-30T01:53:32;99222.31;;;24.31;34.58
62164;BME280;48149;51.132;7.178;2023-04-30T01:56:02;99240.72;;;24.94;33.84
62164;BME280;48149;51.132;7.178;2023-04-30T01:58:28;99227.16;;;24.06;34.65
62164;BME280;48149;51.132;7.178;2023-04-30T02:00:54;99227.88;;;24.16;34.56
62164;BME280;48149;51.132;7.178;2023-04-30T02:03:19;99231.03;;;24.61;34.00
62164;BME280;48149;51.132;7.178;2023-04-30T02:05:45;99223.75;;;23.76;34.87
62164;BME280;48149;51.132;7.178;2023-04-30T02:08:10;99223.75;;;24.00;35.61
62164;BME280;48149;51.132;7.178;2023-04-30T02:10:36;99232.59;;;24.01;35.43
62164;BME280;48149;51.132;7.178;2023-04-30T02:13:01;99233.00;;;23.31;36.50
62164;BME280;48149;51.132;7.178;2023-04-30T02:15:26;99229.50;;;23.65;36.32
62164;BME280;48149;51.132;7.178;2023-04-30T02:17:52;99229.22;;;23.90;35.73
62164;BME280;48149;51.132;7.178;2023-04-30T02:20:17;99230.94;;;22.90;36.21
62164;BME280;48149;51.132;7.178;2023-04-30T02:22:42;99236.47;;;22.98;36.78
62164;BME280;48149;51.132;7.178;2023-04-30T02:25:08;99235.56;;;22.74;37.08
62164;BME280;48149;51.132;7.178;2023-04-30T02:27:33;99237.25;;;23.32;36.41
62164;BME280;48149;51.132;7.178;2023-04-30T02:29:59;99241.63;;;23.81;36.21
62164;BME280;48149;51.132;7.178;2023-04-30T02:32:24;99233.81;;;24.08;35.70
62164;BME280;48149;51.132;7.178;2023-04-30T02:34:49;99236.06;;;24.25;34.80
62164;BME280;48149;51.132;7.178;2023-04-30T02:37:15;99246.50;;;23.50;35.72
62164;BME280;48149;51.132;7.178;2023-04-30T02:39:40;99246.06;;;23.67;35.18
62164;BME280;48149;51.132;7.178;2023-04-30T02:42:06;99252.28;;;23.23;35.49
62164;BME280;48149;51.132;7.178;2023-04-30T02:44:31;99242.03;;;23.35;36.09
62164;BME280;48149;51.132;7.178;2023-04-30T02:46:57;99244.78;;;23.83;35.52
62164;BME280;48149;51.132;7.178;2023-04-30T02:49:22;99240.03;;;23.22;37.28
62164;BME280;48149;51.132;7.178;2023-04-30T02:51:47;99228.06;;;22.81;36.74
62164;BME280;48149;51.132;7.178;2023-04-30T02:54:12;99234.53;;;23.43;35.60
62164;BME280;48149;51.132;7.178;2023-04-30T02:56:37;99232.16;;;23.65;35.56
62164;BME280;48149;51.132;7.178;2023-04-30T02:59:03;99227.28;;;23.72;35.62
62164;BME280;48149;51.132;7.178;2023-04-30T03:01:28;99241.50;;;24.38;34.27
62164;BME280;48149;51.132;7.178;2023-04-30T03:03:54;99235.31;;;24.19;34.23
62164;BME280;48149;51.132;7.178;2023-04-30T03:06:19;99238.88;;;24.10;34.27
62164;BME280;48149;51.132;7.178;2023-04-30T03:08:45;99240.31;;;24.02;35.11
62164;BME280;48149;51.132;7.178;2023-04-30T03:11:10;99245.22;;;25.77;32.53
62164;BME280;48149;51.132;7.178;2023-04-30T03:13:35;99245.66;;;24.87;33.57
62164;BME280;48149;51.132;7.178;2023-04-30T03:16:01;99242.84;;;23.65;35.03
62164;BME280;48149;51.132;7.178;2023-04-30T03:18:28;99247.44;;;25.10;33.49
62164;BME280;48149;51.132;7.178;2023-04-30T03:20:54;99249.34;;;23.59;35.19
62164;BME280;48149;51.132;7.178;2023-04-30T03:23:19;99236.94;;;24.39;34.08
62164;BME280;48149;51.132;7.178;2023-04-30T03:25:45;99237.38;;;24.46;34.21
62164;BME280;48149;51.132;7.178;2023-04-30T03:28:10;99238.53;;;23.69;35.39
62164;BME280;48149;51.132;7.178;2023-04-30T03:30:36;99240.97;;;23.65;35.92
62164;BME280;48149;51.132;7.178;2023-04-30T03:33:01;99245.34;;;22.89;35.78
62164;BME280;48149;51.132;7.178;2023-04-30T03:35:26;99240.66;;;23.09;37.10
62164;BME280;48149;51.132;7.178;2023-04-30T03:37:51;99236.75;;;23.30;36.08
62164;BME280;48149;51.132;7.178;2023-04-30T03:40:17;99233.13;;;23.50;35.51
62164;BME280;48149;51.132;7.178;2023-04-30T03:42:42;99233.22;;;23.01;36.87
62164;BME280;48149;51.132;7.178;2023-04-30T03:45:07;99227.69;;;23.84;35.34
62164;BME280;48149;51.132;7.178;2023-04-30T03:47:34;99227.25;;;24.43;34.17
62164;BME280;48149;51.132;7.178;2023-04-30T03:49:59;99232.38;;;25.14;33.31
62164;BME280;48149;51.132;7.178;2023-04-30T03:52:25;99228.59;;;23.98;33.86
62164;BME280;48149;51.132;7.178;2023-04-30T03:54:50;99222.09;;;24.47;33.66
62164;BME280;48149;51.132;7.178;2023-04-30T03:57:15;99219.22;;;24.43;34.37
62164;BME280;48149;51.132;7.178;2023-04-30T03:59:41;99226.03;;;24.12;34.52
62164;BME280;48149;51.132;7.178;2023-04-30T04:02:06;99219.88;;;23.06;35.31
62164;BME280;48149;51.132;7.178;2023-04-30T04:04:32;99230.34;;;23.84;35.04
62164;BME280;48149;51.132;7.178;2023-04-30T04:06:57;99225.28;;;22.96;35.71
62164;BME280;48149;51.132;7.178;2023-04-30T04:09:22;99229.56;;;24.50;33.73
62164;BME280;48149;51.132;7.178;2023-04-30T04:11:47;99226.41;;;24.24;34.71
62164;BME280;48149;51.132;7.178;2023-04-30T04:14:13;99232.06;;;23.99;34.27
62164;BME280;48149;51.132;7.178;2023-04-30T04:16:38;99235.69;;;25.06;33.63
62164;BME280;48149;51.132;7.178;2023-04-30T04:19:03;99236.84;;;25.51;32.46
62164;BME280;48149;51.132;7.178;2023-04-30T04:21:28;99231.00;;;25.63;31.34
62164;BME280;48149;51.132;7.178;2023-04-30T04:23:54;99238.75;;;25.64;31.62
62164;BME280;48149;51.132;7.178;2023-04-30T04:26:19;99237.75;;;26.56;30.51
62164;BME280;48149;51.132;7.178;2023-04-30T04:28:45;99237.78;;;26.15;31.16
62164;BME280;48149;51.132;7.178;2023-04-30T04:31:11;99243.25;;;25.82;31.20
62164;BME280;48149;51.132;7.178;2023-04-30T04:33:37;99246.41;;;25.57;32.01
62164;BME280;48149;51.132;7.178;2023-04-30T04:36:02;99242.66;;;25.99;31.16
62164;BME280;48149;51.132;7.178;2023-04-30T04:38:27;99252.28;;;25.86;31.26
62164;BME280;48149;51.132;7.178;2023-04-30T04:40:53;99253.38;;;26.54;30.93
62164;BME280;48149;51.132;7.178;2023-04-30T04:43:18;99261.91;;;26.56;30.78
62164;BME280;48149;51.132;7.178;2023-04-30T04:45:44;99254.56;;;27.19;29.78
62164;BME280;48149;51.132;7.178;2023-04-30T04:48:09;99248.50;;;26.91;30.07
62164;BME280;48149;51.132;7.178;2023-04-30T04:50:34;99258.06;;;26.70;29.83
62164;BME280;48149;51.132;7.178;2023-04-30T04:53:00;99268.81;;;26.84;30.16
62164;BME280;48149;51.132;7.178;2023-04-30T04:55:25;99260.94;;;26.87;29.96
62164;BME280;48149;51.132;7.178;2023-04-30T04:57:51;99265.50;;;25.83;31.46
62164;BME280;48149;51.132;7.178;2023-04-30T05:00:16;99265.16;;;27.02;30.12
62164;BME280;48149;51.132;7.178;2023-04-30T05:02:42;99267.47;;;25.91;31.35
62164;BME280;48149;51.132;7.178;2023-04-30T05:05:07;99259.31;;;25.55;31.30
62164;BME280;48149;51.132;7.178;2023-04-30T05:07:33;99260.75;;;25.93;31.36
62164;BME280;48149;51.132;7.178;2023-04-30T05:09:59;99255.59;;;26.24;31.27
62164;BME280;48149;51.132;7.178;2023-04-30T05:12:24;99259.06;;;27.32;30.11
62164;BME280;48149;51.132;7.178;2023-04-30T05:14:49;99264.06;;;27.25;30.42
62164;BME280;48149;51.132;7.178;2023-04-30T05:17:15;99265.94;;;28.08;29.08
62164;BME280;48149;51.132;7.178;2023-04-30T05:19:40;99270.69;;;25.93;31.31
62164;BME280;48149;51.132;7.178;2023-04-30T05:22:05;99269.56;;;28.04;29.47
62164;BME280;48149;51.132;7.178;2023-04-30T05:24:31;99269.84;;;27.94;29.07
62164;BME280;48149;51.132;7.178;2023-04-30T05:26:56;99265.78;;;26.63;30.21
62164;BME280;48149;51.132;7.178;2023-04-30T05:29:22;99278.22;;;26.05;31.67
62164;BME280;48149;51.132;7.178;2023-04-30T05:31:47;99278.47;;;27.51;30.66
62164;BME280;48149;51.132;7.178;2023-04-30T05:34:12;99271.91;;;27.35;30.25
62164;BME280;48149;51.132;7.178;2023-04-30T05:36:37;99281.59;;;27.67;29.27
62164;BME280;48149;51.132;7.178;2023-04-30T05:39:02;99286.03;;;27.72;29.55
62164;BME280;48149;51.132;7.178;2023-04-30T05:41:28;99293.63;;;27.70;30.19
62164;BME280;48149;51.132;7.178;2023-04-30T05:43:53;99295.31;;;27.57;29.61
62164;BME280;48149;51.132;7.178;2023-04-30T05:46:18;99294.00;;;28.73;29.27
62164;BME280;48149;51.132;7.178;2023-04-30T05:48:44;99299.56;;;28.68;29.22
62164;BME280;48149;51.132;7.178;2023-04-30T05:51:09;99300.97;;;28.65;29.10
62164;BME280;48149;51.132;7.178;2023-04-30T05:53:35;99301.94;;;27.82;30.37
62164;BME280;48149;51.132;7.178;2023-04-30T05:56:00;99306.25;;;28.96;28.84
62164;BME280;48149;51.132;7.178;2023-04-30T05:58:25;99312.34;;;28.53;29.53
62164;BME280;48149;51.132;7.178;2023-04-30T06:00:51;99309.16;;;28.51;28.78
62164;BME280;48149;51.132;7.178;2023-04-30T06:03:19;99299.94;;;27.21;30.53
62164;BME280;48149;51.132;7.178;2023-04-30T06:05:45;99307.84;;;26.54;31.84
62164;BME280;48149;51.132;7.178;2023-04-30T06:08:11;99302.66;;;26.58;31.73
62164;BME280;48149;51.132;7.178;2023-04-30T06:10:36;99305.31;;;27.21;30.86
62164;BME280;48149;51.132;7.178;2023-04-30T06:13:02;99297.16;;;27.48;30.64
62164;BME280;48149;51.132;7.178;2023-04-30T06:15:28;99295.69;;;28.03;30.67
62164;BME280;48149;51.132;7.178;2023-04-30T06:17:53;99299.19;;;28.60;29.45
62164;BME280;48149;51.132;7.178;2023-04-30T06:20:18;99301.16;;;27.15;30.80
62164;BME280;48149;51.132;7.178;2023-04-30T06:22:44;99288.34;;;26.76;31.73
62164;BME280;48149;51.132;7.178;2023-04-30T06:25:09;99298.81;;;26.99;30.56
62164;BME280;48149;51.132;7.178;2023-04-30T06:27:34;99293.09;;;27.59;30.45
62164;BME280;48149;51.132;7.178;2023-04-30T06:29:59;99294.16;;;29.19;28.64
62164;BME280;48149;51.132;7.178;2023-04-30T06:32:25;99292.94;;;28.26;29.45
62164;BME280;48149;51.132;7.178;2023-04-30T06:34:50;99297.19;;;29.18;29.21
62164;BME280;48149;51.132;7.178;2023-04-30T06:37:16;99295.81;;;28.38;29.31
62164;BME280;48149;51.132;7.178;2023-04-30T06:39:41;99303.72;;;26.21;31.50
62164;BME280;48149;51.132;7.178;2023-04-30T06:42:06;99302.22;;;27.49;30.75
62164;BME280;48149;51.132;7.178;2023-04-30T06:44:31;99296.09;;;28.28;29.70
62164;BME280;48149;51.132;7.178;2023-04-30T06:46:57;99297.59;;;28.42;28.86
62164;BME280;48149;51.132;7.178;2023-04-30T06:49:22;99296.06;;;28.76;28.74
62164;BME280;48149;51.132;7.178;2023-04-30T06:51:47;99304.94;;;30.08;27.52
62164;BME280;48149;51.132;7.178;2023-04-30T06:54:13;99306.25;;;28.96;27.68
62164;BME280;48149;51.132;7.178;2023-04-30T06:56:38;99302.78;;;29.85;27.21
62164;BME280;48149;51.132;7.178;2023-04-30T06:59:03;99304.41;;;31.68;25.88
62164;BME280;48149;51.132;7.178;2023-04-30T07:01:28;99301.13;;;31.30;25.82
62164;BME280;48149;51.132;7.178;2023-04-30T07:03:54;99302.06;;;29.58;27.95
62164;BME280;48149;51.132;7.178;2023-04-30T07:06:19;99293.22;;;31.25;26.19
62164;BME280;48149;51.132;7.178;2023-04-30T07:08:45;99292.91;;;29.08;28.04
62164;BME280;48149;51.132;7.178;2023-04-30T07:11:10;99285.94;;;29.33;28.77
62164;BME280;48149;51.132;7.178;2023-04-30T07:13:36;99287.19;;;28.10;29.49
62164;BME280;48149;51.132;7.178;2023-04-30T07:16:02;99286.13;;;27.89;29.90
62164;BME280;48149;51.132;7.178;2023-04-30T07:18:27;99289.84;;;29.61;28.35
62164;BME280;48149;51.132;7.178;2023-04-30T07:20:53;99288.03;;;31.53;25.87
62164;BME280;48149;51.132;7.178;2023-04-30T07:23:18;99292.25;;;30.38;27.61
62164;BME280;48149;51.132;7.178;2023-04-30T07:25:44;99292.50;;;29.70;26.90
62164;BME280;48149;51.132;7.178;2023-04-30T07:28:09;99292.81;;;31.35;25.93
62164;BME280;48149;51.132;7.178;2023-04-30T07:30:34;99290.59;;;30.96;26.54
62164;BME280;48149;51.132;7.178;2023-04-30T07:33:00;99289.53;;;31.09;26.31
62164;BME280;48149;51.132;7.178;2023-04-30T07:35:25;99293.09;;;30.59;27.02
62164;BME280;48149;51.132;7.178;2023-04-30T07:37:51;99287.78;;;32.15;24.86
62164;BME280;48149;51.132;7.178;2023-04-30T07:40:16;99292.28;;;32.59;24.67
62164;BME280;48149;51.132;7.178;2023-04-30T07:42:41;99290.16;;;32.29;24.75
62164;BME280;48149;51.132;7.178;2023-04-30T07:45:07;99297.03;;;32.02;25.19
62164;BME280;48149;51.132;7.178;2023-04-30T07:47:32;99292.53;;;30.16;27.04
62164;BME280;48149;51.132;7.178;2023-04-30T07:49:57;99296.69;;;30.05;26.04
62164;BME280;48149;51.132;7.178;2023-04-30T07:52:22;99297.94;;;32.94;23.80
62164;BME280;48149;51.132;7.178;2023-04-30T07:54:48;99296.31;;;29.77;27.21
62164;BME280;48149;51.132;7.178;2023-04-30T07:57:14;99295.72;;;33.24;23.33
62164;BME280;48149;51.132;7.178;2023-04-30T07:59:39;99294.66;;;33.28;24.41
62164;BME280;48149;51.132;7.178;2023-04-30T08:02:04;99302.47;;;33.30;23.73
62164;BME280;48149;51.132;7.178;2023-04-30T08:04:30;99299.59;;;33.98;23.96
62164;BME280;48149;51.132;7.178;2023-04-30T08:06:55;99283.41;;;29.28;26.69
62164;BME280;48149;51.132;7.178;2023-04-30T08:09:20;99294.59;;;28.04;30.26
62164;BME280;48149;51.132;7.178;2023-04-30T08:11:45;99298.63;;;32.15;25.69
62164;BME280;48149;51.132;7.178;2023-04-30T08:14:11;99298.72;;;32.18;24.66
62164;BME280;48149;51.132;7.178;2023-04-30T08:16:36;99297.22;;;32.69;23.58
62164;BME280;48149;51.132;7.178;2023-04-30T08:19:01;99296.72;;;29.07;28.27
62164;BME280;48149;51.132;7.178;2023-04-30T08:21:28;99293.63;;;30.15;27.35
62164;BME280;48149;51.132;7.178;2023-04-30T08:23:53;99296.78;;;30.17;26.80
62164;BME280;48149;51.132;7.178;2023-04-30T08:26:18;99296.91;;;30.58;26.28
62164;BME280;48149;51.132;7.178;2023-04-30T08:28:44;99304.44;;;30.94;26.45
62164;BME280;48149;51.132;7.178;2023-04-30T08:31:09;99301.00;;;31.59;25.76
62164;BME280;48149;51.132;7.178;2023-04-30T08:33:34;99302.34;;;31.53;25.37
62164;BME280;48149;51.132;7.178;2023-04-30T08:35:59;99299.47;;;31.38;25.34
62164;BME280;48149;51.132;7.178;2023-04-30T08:38:25;99306.28;;;31.23;25.70
62164;BME280;48149;51.132;7.178;2023-04-30T08:43:28;99298.16;;;32.49;24.89
62164;BME280;48149;51.132;7.178;2023-04-30T08:45:54;99296.22;;;32.38;24.66
62164;BME280;48149;51.132;7.178;2023-04-30T08:48:20;99289.41;;;31.26;25.54
62164;BME280;48149;51.132;7.178;2023-04-30T08:50:47;99294.50;;;31.07;25.80
62164;BME280;48149;51.132;7.178;2023-04-30T08:53:13;99294.94;;;32.84;24.23
62164;BME280;48149;51.132;7.178;2023-04-30T08:55:39;99293.66;;;33.49;23.89
62164;BME280;48149;51.132;7.178;2023-04-30T08:58:06;99287.44;;;31.92;25.26
62164;BME280;48149;51.132;7.178;2023-04-30T09:00:32;99295.00;;;32.71;25.29
62164;BME280;48149;51.132;7.178;2023-04-30T09:02:59;99284.53;;;29.82;27.39
62164;BME280;48149;51.132;7.178;2023-04-30T09:05:25;99290.09;;;30.23;27.68
62164;BME280;48149;51.132;7.178;2023-04-30T09:07:50;99283.44;;;32.74;25.27
62164;BME280;48149;51.132;7.178;2023-04-30T09:10:19;99285.25;;;33.10;25.19
62164;BME280;48149;51.132;7.178;2023-04-30T09:13:01;99285.66;;;32.20;24.68
62164;BME280;48149;51.132;7.178;2023-04-30T09:15:28;99289.72;;;32.14;25.57
62164;BME280;48149;51.132;7.178;2023-04-30T09:18:37;99284.47;;;31.85;25.31
62164;BME280;48149;51.132;7.178;2023-04-30T09:21:00;99289.28;;;32.89;25.73
62164;BME280;48149;51.132;7.178;2023-04-30T09:23:27;99286.56;;;33.88;24.95
62164;BME280;48149;51.132;7.178;2023-04-30T09:25:52;99285.22;;;31.61;27.21
62164;BME280;48149;51.132;7.178;2023-04-30T09:28:18;99286.38;;;34.12;24.04
62164;BME280;48149;51.132;7.178;2023-04-30T09:30:47;99282.63;;;34.51;23.35
62164;BME280;48149;51.132;7.178;2023-04-30T09:33:12;99278.31;;;31.19;26.54
62164;BME280;48149;51.132;7.178;2023-04-30T09:35:38;99272.31;;;32.03;26.41
62164;BME280;48149;51.132;7.178;2023-04-30T09:38:04;99276.88;;;34.72;23.25
62164;BME280;48149;51.132;7.178;2023-04-30T09:40:36;99265.38;;;36.30;21.38
62164;BME280;48149;51.132;7.178;2023-04-30T09:43:02;99268.88;;;36.31;21.64
62164;BME280;48149;51.132;7.178;2023-04-30T09:45:38;99261.66;;;37.82;20.57
62164;BME280;48149;51.132;7.178;2023-04-30T09:48:03;99267.09;;;33.86;23.33
62164;BME280;48149;51.132;7.178;2023-04-30T09:50:35;99264.41;;;37.82;20.91
62164;BME280;48149;51.132;7.178;2023-04-30T09:53:04;99261.69;;;36.72;21.12
62164;BME280;48149;51.132;7.178;2023-04-30T09:55:30;99253.16;;;35.53;20.05
62164;BME280;48149;51.132;7.178;2023-04-30T09:57:57;99255.25;;;33.19;22.66
62164;BME280;48149;51.132;7.178;2023-04-30T10:00:22;99250.56;;;35.37;22.40
62164;BME280;48149;51.132;7.178;2023-04-30T10:02:48;99248.66;;;37.65;19.57
62164;BME280;48149;51.132;7.178;2023-04-30T10:05:14;99249.75;;;38.66;19.50
62164;BME280;48149;51.132;7.178;2023-04-30T10:07:40;99238.63;;;36.40;19.30
62164;BME280;48149;51.132;7.178;2023-04-30T10:10:09;99245.31;;;34.87;20.08
62164;BME280;48149;51.132;7.178;2023-04-30T10:12:46;99240.50;;;36.09;19.72
62164;BME280;48149;51.132;7.178;2023-04-30T10:15:31;99245.69;;;37.04;19.87
62164;BME280;48149;51.132;7.178;2023-04-30T10:17:59;99242.47;;;38.99;18.41
62164;BME280;48149;51.132;7.178;2023-04-30T10:20:26;99231.72;;;42.01;17.43
62164;BME280;48149;51.132;7.178;2023-04-30T10:22:52;99241.25;;;40.66;16.24
62164;BME280;48149;51.132;7.178;2023-04-30T10:25:17;99230.44;;;39.70;16.89
62164;BME280;48149;51.132;7.178;2023-04-30T10:27:43;99222.84;;;38.89;17.44
62164;BME280;48149;51.132;7.178;2023-04-30T10:30:09;99221.72;;;38.98;16.96
62164;BME280;48149;51.132;7.178;2023-04-30T10:32:50;99230.75;;;38.26;18.52
62164;BME280;48149;51.132;7.178;2023-04-30T10:37:46;99223.25;;;41.27;15.95
62164;BME280;48149;51.132;7.178;2023-04-30T10:40:14;99224.88;;;41.79;15.79
62164;BME280;48149;51.132;7.178;2023-04-30T10:42:46;99220.56;;;40.29;17.46
62164;BME280;48149;51.132;7.178;2023-04-30T10:45:13;99216.84;;;41.51;15.63
62164;BME280;48149;51.132;7.178;2023-04-30T10:47:43;99205.88;;;42.29;17.15
62164;BME280;48149;51.132;7.178;2023-04-30T10:50:11;99208.38;;;41.24;17.05
62164;BME280;48149;51.132;7.178;2023-04-30T10:52:37;99202.69;;;43.22;15.59
62164;BME280;48149;51.132;7.178;2023-04-30T10:55:06;99206.72;;;42.26;16.38
62164;BME280;48149;51.132;7.178;2023-04-30T10:57:39;99202.31;;;42.66;16.18
62164;BME280;48149;51.132;7.178;2023-04-30T11:02:46;99194.19;;;42.22;16.13
62164;BME280;48149;51.132;7.178;2023-04-30T11:05:15;99196.09;;;41.43;16.30
62164;BME280;48149;51.132;7.178;2023-04-30T11:07:55;99197.03;;;41.19;16.83
62164;BME280;48149;51.132;7.178;2023-04-30T11:10:21;99189.66;;;39.09;17.69
62164;BME280;48149;51.132;7.178;2023-04-30T11:12:47;99183.16;;;41.84;17.12
62164;BME280;48149;51.132;7.178;2023-04-30T11:15:17;99188.97;;;43.45;16.66
62164;BME280;48149;51.132;7.178;2023-04-30T11:17:43;99177.97;;;41.93;17.59
62164;BME280;48149;51.132;7.178;2023-04-30T11:20:12;99180.69;;;42.91;15.66
62164;BME280;48149;51.132;7.178;2023-04-30T11:22:37;99185.59;;;43.57;15.90
62164;BME280;48149;51.132;7.178;2023-04-30T11:25:07;99177.72;;;44.97;15.69
62164;BME280;48149;51.132;7.178;2023-04-30T11:27:34;99170.47;;;44.67;14.67
62164;BME280;48149;51.132;7.178;2023-04-30T11:30:00;99172.09;;;45.49;15.13
62164;BME280;48149;51.132;7.178;2023-04-30T11:32:34;99172.88;;;46.52;15.22
62164;BME280;48149;51.132;7.178;2023-04-30T11:35:03;99165.16;;;41.32;17.08
62164;BME280;48149;51.132;7.178;2023-04-30T11:37:33;99169.25;;;41.58;16.96
62164;BME280;48149;51.132;7.178;2023-04-30T11:40:02;99159.56;;;39.76;17.78
62164;BME280;48149;51.132;7.178;2023-04-30T11:42:28;99167.34;;;38.92;18.29
62164;BME280;48149;51.132;7.178;2023-04-30T11:45:01;99165.47;;;38.21;19.15
62164;BME280;48149;51.132;7.178;2023-04-30T11:47:26;99159.97;;;38.10;18.86
62164;BME280;48149;51.132;7.178;2023-04-30T11:49:51;99165.72;;;37.98;19.57
62164;BME280;48149;51.132;7.178;2023-04-30T11:52:19;99166.56;;;39.06;18.16
62164;BME280;48149;51.132;7.178;2023-04-30T11:54:45;99159.00;;;36.94;19.32
62164;BME280;48149;51.132;7.178;2023-04-30T11:57:10;99157.03;;;36.91;19.90
62164;BME280;48149;51.132;7.178;2023-04-30T11:59:38;99148.78;;;37.27;19.50
62164;BME280;48149;51.132;7.178;2023-04-30T12:02:05;99157.09;;;40.31;18.70
62164;BME280;48149;51.132;7.178;2023-04-30T12:04:31;99153.25;;;40.90;18.00
62164;BME280;48149;51.132;7.178;2023-04-30T12:06:56;99154.84;;;41.43;16.11
62164;BME280;48149;51.132;7.178;2023-04-30T12:09:22;99150.41;;;44.99;15.58
62164;BME280;48149;51.132;7.178;2023-04-30T12:11:47;99149.34;;;42.21;16.73
62164;BME280;48149;51.132;7.178;2023-04-30T12:14:13;99147.72;;;40.25;17.00
62164;BME280;48149;51.132;7.178;2023-04-30T12:19:04;99134.50;;;39.53;18.50
62164;BME280;48149;51.132;7.178;2023-04-30T12:21:29;99131.03;;;40.71;17.26
62164;BME280;48149;51.132;7.178;2023-04-30T12:23:55;99132.38;;;41.92;16.33
62164;BME280;48149;51.132;7.178;2023-04-30T12:26:20;99126.38;;;40.57;17.54
62164;BME280;48149;51.132;7.178;2023-04-30T12:28:46;99124.69;;;43.48;16.90
62164;BME280;48149;51.132;7.178;2023-04-30T12:31:12;99114.84;;;45.62;15.59
62164;BME280;48149;51.132;7.178;2023-04-30T12:33:37;99128.28;;;44.47;15.97
62164;BME280;48149;51.132;7.178;2023-04-30T12:36:03;99121.38;;;43.99;15.53
62164;BME280;48149;51.132;7.178;2023-04-30T12:38:29;99123.53;;;39.77;17.65
62164;BME280;48149;51.132;7.178;2023-04-30T12:40:54;99115.69;;;39.09;18.45
62164;BME280;48149;51.132;7.178;2023-04-30T12:43:20;99119.16;;;37.80;19.33
62164;BME280;48149;51.132;7.178;2023-04-30T12:45:52;99115.47;;;41.94;17.27
62164;BME280;48149;51.132;7.178;2023-04-30T12:48:19;99120.94;;;42.88;16.38
62164;BME280;48149;51.132;7.178;2023-04-30T12:51:03;99123.81;;;40.18;17.75
62164;BME280;48149;51.132;7.178;2023-04-30T12:53:29;99114.53;;;43.45;16.52
62164;BME280;48149;51.132;7.178;2023-04-30T12:56:08;99115.78;;;41.18;16.39
62164;BME280;48149;51.132;7.178;2023-04-30T12:58:34;99114.09;;;42.43;16.86
62164;BME280;48149;51.132;7.178;2023-04-30T13:00:59;99115.28;;;43.88;16.20
62164;BME280;48149;51.132;7.178;2023-04-30T13:03:25;99122.41;;;38.00;19.26
62164;BME280;48149;51.132;7.178;2023-04-30T13:05:50;99107.50;;;36.92;20.31
62164;BME280;48149;51.132;7.178;2023-04-30T13:08:16;99099.03;;;42.21;17.44
62164;BME280;48149;51.132;7.178;2023-04-30T13:10:42;99100.16;;;40.53;17.98
62164;BME280;48149;51.132;7.178;2023-04-30T13:13:07;99096.81;;;43.19;17.05
62164;BME280;48149;51.132;7.178;2023-04-30T13:15:32;99091.03;;;41.21;16.96
62164;BME280;48149;51.132;7.178;2023-04-30T13:17:58;99085.13;;;45.05;15.53
62164;BME280;48149;51.132;7.178;2023-04-30T13:20:23;99090.91;;;43.87;16.10
62164;BME280;48149;51.132;7.178;2023-04-30T13:22:51;99077.94;;;41.73;16.38
62164;BME280;48149;51.132;7.178;2023-04-30T13:25:17;99085.50;;;43.37;16.25
62164;BME280;48149;51.132;7.178;2023-04-30T13:27:43;99085.84;;;45.54;15.42